sensor_id;sensor_type;location;lat;lon;timestamp;pressure;altitude;pressure_sealevel;temperature;humidity
46846;BME280;33947;46.804;134.252;2022-08-18T00:00:18;99886.03;;;25.32;61.13
46846;BME280;33947;46.804;134.252;2022-08-18T00:03:22;99902.47;;;25.77;61.05
46846;BME280;33947;46.804;134.252;2022-08-18T00:06:47;99894.28;;;25.95;59.73
46846;BME280;33947;46.804;134.252;2022-08-18T00:09:51;99894.75;;;25.90;59.71
46846;BME280;33947;46.804;134.252;2022-08-18T00:12:56;99908.81;;;26.48;59.15
46846;BME280;33947;46.804;134.252;2022-08-18T00:16:03;99911.22;;;26.51;59.60
46846;BME280;33947;46.804;134.252;2022-08-18T00:19:08;99910.69;;;26.21;59.85
46846;BME280;33947;46.804;134.252;2022-08-18T00:22:16;99908.34;;;26.26;60.51
46846;BME280;33947;46.804;134.252;2022-08-18T00:25:22;99910.13;;;26.36;60.49
46846;BME280;33947;46.804;134.252;2022-08-18T00:28:27;99897.72;;;26.41;59.96
46846;BME280;33947;46.804;134.252;2022-08-18T00:31:31;99905.03;;;26.41;58.97
46846;BME280;33947;46.804;134.252;2022-08-18T00:34:36;99886.72;;;26.25;58.79
46846;BME280;33947;46.804;134.252;2022-08-18T00:37:42;99903.16;;;26.41;59.07
46846;BME280;33947;46.804;134.252;2022-08-18T00:40:49;99891.22;;;26.34;59.18
46846;BME280;33947;46.804;134.252;2022-08-18T00:43:57;99826.13;;;25.96;59.31
46846;BME280;33947;46.804;134.252;2022-08-18T00:47:01;99895.22;;;26.22;60.33
46846;BME280;33947;46.804;134.252;2022-08-18T00:50:06;99878.47;;;26.35;59.83
46846;BME280;33947;46.804;134.252;2022-08-18T00:56:25;99880.50;;;27.02;58.83
46846;BME280;33947;46.804;134.252;2022-08-18T01:02:40;99887.81;;;28.36;55.84
46846;BME280;33947;46.804;134.252;2022-08-18T01:06:16;99862.25;;;29.16;53.12
46846;BME280;33947;46.804;134.252;2022-08-18T01:09:20;99864.94;;;30.33;50.67
46846;BME280;33947;46.804;134.252;2022-08-18T01:12:26;99848.31;;;30.95;49.75
46846;BME280;33947;46.804;134.252;2022-08-18T01:15:48;99857.97;;;31.71;48.06
46846;BME280;33947;46.804;134.252;2022-08-18T01:18:53;99857.66;;;31.59;47.00
46846;BME280;33947;46.804;134.252;2022-08-18T01:22:30;99851.69;;;31.99;46.54
46846;BME280;33947;46.804;134.252;2022-08-18T01:25:40;99854.34;;;32.14;46.11
46846;BME280;33947;46.804;134.252;2022-08-18T01:29:07;99844.84;;;31.88;47.28
46846;BME280;33947;46.804;134.252;2022-08-18T01:32:22;99851.88;;;31.97;46.00
46846;BME280;33947;46.804;134.252;2022-08-18T01:35:27;99835.75;;;32.44;45.26
46846;BME280;33947;46.804;134.252;2022-08-18T01:38:46;99840.19;;;32.17;45.85
46846;BME280;33947;46.804;134.252;2022-08-18T01:41:51;99830.56;;;32.28;45.92
46846;BME280;33947;46.804;134.252;2022-08-18T01:44:56;99831.47;;;32.77;45.59
46846;BME280;33947;46.804;134.252;2022-08-18T01:48:01;99828.97;;;32.40;45.62
46846;BME280;33947;46.804;134.252;2022-08-18T01:51:08;99822.72;;;32.60;45.66
46846;BME280;33947;46.804;134.252;2022-08-18T01:54:13;99820.91;;;33.43;44.95
46846;BME280;33947;46.804;134.252;2022-08-18T01:57:20;99817.84;;;33.11;45.23
46846;BME280;33947;46.804;134.252;2022-08-18T02:00:25;99813.19;;;33.11;44.62
46846;BME280;33947;46.804;134.252;2022-08-18T02:03:39;99805.22;;;32.74;45.16
46846;BME280;33947;46.804;134.252;2022-08-18T02:06:44;99796.41;;;31.80;47.36
46846;BME280;33947;46.804;134.252;2022-08-18T02:09:49;99799.41;;;31.85;47.19
46846;BME280;33947;46.804;134.252;2022-08-18T02:12:55;99777.06;;;31.67;47.12
46846;BME280;33947;46.804;134.252;2022-08-18T02:16:00;99779.13;;;31.36;47.71
46846;BME280;33947;46.804;134.252;2022-08-18T02:19:05;99753.88;;;31.04;48.86
46846;BME280;33947;46.804;134.252;2022-08-18T02:22:13;99782.34;;;31.03;49.71
46846;BME280;33947;46.804;134.252;2022-08-18T02:25:19;99774.00;;;30.89;50.01
46846;BME280;33947;46.804;134.252;2022-08-18T02:28:24;99769.81;;;30.94;49.97
46846;BME280;33947;46.804;134.252;2022-08-18T02:31:32;99760.06;;;30.91;49.77
46846;BME280;33947;46.804;134.252;2022-08-18T02:34:37;99746.56;;;30.89;50.21
46846;BME280;33947;46.804;134.252;2022-08-18T02:37:42;99741.31;;;30.73;50.35
46846;BME280;33947;46.804;134.252;2022-08-18T02:40:57;99760.63;;;30.65;50.08
46846;BME280;33947;46.804;134.252;2022-08-18T02:44:06;99737.75;;;30.57;50.36
46846;BME280;33947;46.804;134.252;2022-08-18T02:47:10;99740.97;;;30.61;49.57
46846;BME280;33947;46.804;134.252;2022-08-18T02:50:14;99718.59;;;30.27;50.01
46846;BME280;33947;46.804;134.252;2022-08-18T02:53:19;99730.22;;;30.14;50.24
46846;BME280;33947;46.804;134.252;2022-08-18T02:56:28;99727.69;;;30.13;50.92
46846;BME280;33947;46.804;134.252;2022-08-18T02:59:44;99718.13;;;30.09;51.67
46846;BME280;33947;46.804;134.252;2022-08-18T03:02:51;99724.66;;;30.08;51.83
46846;BME280;33947;46.804;134.252;2022-08-18T03:05:56;99716.88;;;29.96;52.43
46846;BME280;33947;46.804;134.252;2022-08-18T03:09:02;99722.75;;;29.93;53.06
46846;BME280;33947;46.804;134.252;2022-08-18T03:12:09;99719.16;;;29.93;53.02
46846;BME280;33947;46.804;134.252;2022-08-18T03:15:14;99717.09;;;29.95;53.09
46846;BME280;33947;46.804;134.252;2022-08-18T03:18:20;99713.75;;;29.84;53.25
46846;BME280;33947;46.804;134.252;2022-08-18T03:21:28;99725.41;;;30.01;52.44
46846;BME280;33947;46.804;134.252;2022-08-18T03:24:34;99709.41;;;29.60;52.94
46846;BME280;33947;46.804;134.252;2022-08-18T03:27:39;99712.63;;;29.64;53.02
46846;BME280;33947;46.804;134.252;2022-08-18T03:30:43;99709.03;;;29.63;53.63
46846;BME280;33947;46.804;134.252;2022-08-18T03:33:51;99698.66;;;29.73;53.18
46846;BME280;33947;46.804;134.252;2022-08-18T03:36:56;99688.28;;;29.54;52.31
46846;BME280;33947;46.804;134.252;2022-08-18T03:40:01;99689.06;;;29.39;52.35
46846;BME280;33947;46.804;134.252;2022-08-18T03:43:07;99680.81;;;29.48;52.98
46846;BME280;33947;46.804;134.252;2022-08-18T03:46:31;99681.75;;;29.55;52.65
46846;BME280;33947;46.804;134.252;2022-08-18T03:49:36;99666.31;;;29.39;53.10
46846;BME280;33947;46.804;134.252;2022-08-18T03:52:41;99683.44;;;29.41;52.96
46846;BME280;33947;46.804;134.252;2022-08-18T03:55:46;99674.84;;;29.44;52.73
46846;BME280;33947;46.804;134.252;2022-08-18T03:59:02;99637.88;;;29.10;53.16
46846;BME280;33947;46.804;134.252;2022-08-18T04:02:07;99686.59;;;29.29;52.36
46846;BME280;33947;46.804;134.252;2022-08-18T04:05:11;99660.91;;;29.15;52.73
46846;BME280;33947;46.804;134.252;2022-08-18T04:08:17;99660.81;;;29.24;52.74
46846;BME280;33947;46.804;134.252;2022-08-18T04:11:22;99655.94;;;29.19;51.59
46846;BME280;33947;46.804;134.252;2022-08-18T04:14:27;99636.78;;;29.19;52.69
46846;BME280;33947;46.804;134.252;2022-08-18T04:17:35;99647.94;;;29.32;52.65
46846;BME280;33947;46.804;134.252;2022-08-18T04:21:06;99639.16;;;29.22;52.63
46846;BME280;33947;46.804;134.252;2022-08-18T04:24:12;99656.03;;;29.26;52.63
46846;BME280;33947;46.804;134.252;2022-08-18T04:27:18;99652.00;;;29.37;50.65
46846;BME280;33947;46.804;134.252;2022-08-18T04:30:23;99639.88;;;29.16;51.20
46846;BME280;33947;46.804;134.252;2022-08-18T04:33:28;99650.28;;;28.97;52.62
46846;BME280;33947;46.804;134.252;2022-08-18T04:36:34;99644.25;;;28.55;53.50
46846;BME280;33947;46.804;134.252;2022-08-18T04:39:38;99632.34;;;28.71;51.54
46846;BME280;33947;46.804;134.252;2022-08-18T04:42:44;99636.31;;;28.69;52.98
46846;BME280;33947;46.804;134.252;2022-08-18T04:45:48;99641.22;;;28.73;52.91
46846;BME280;33947;46.804;134.252;2022-08-18T04:48:56;99625.31;;;28.77;52.93
46846;BME280;33947;46.804;134.252;2022-08-18T04:52:05;99626.53;;;28.51;53.56
46846;BME280;33947;46.804;134.252;2022-08-18T04:55:47;99624.34;;;28.70;54.18
46846;BME280;33947;46.804;134.252;2022-08-18T04:58:57;99616.56;;;29.05;53.92
46846;BME280;33947;46.804;134.252;2022-08-18T05:02:03;99604.06;;;29.26;51.74
46846;BME280;33947;46.804;134.252;2022-08-18T05:05:16;99594.66;;;28.90;52.34
46846;BME280;33947;46.804;134.252;2022-08-18T05:08:21;99564.41;;;28.92;53.13
46846;BME280;33947;46.804;134.252;2022-08-18T05:11:27;99572.88;;;28.97;51.61
46846;BME280;33947;46.804;134.252;2022-08-18T05:14:32;99566.22;;;28.76;52.64
46846;BME280;33947;46.804;134.252;2022-08-18T05:17:38;99603.44;;;29.00;52.07
46846;BME280;33947;46.804;134.252;2022-08-18T05:20:43;99583.69;;;29.13;51.74
46846;BME280;33947;46.804;134.252;2022-08-18T05:23:49;99605.34;;;29.00;53.27
46846;BME280;33947;46.804;134.252;2022-08-18T05:26:54;99590.19;;;29.27;52.50
46846;BME280;33947;46.804;134.252;2022-08-18T05:30:00;99590.28;;;29.19;52.90
46846;BME280;33947;46.804;134.252;2022-08-18T05:33:07;99594.72;;;29.20;51.29
46846;BME280;33947;46.804;134.252;2022-08-18T05:39:56;99580.44;;;28.25;54.61
46846;BME280;33947;46.804;134.252;2022-08-18T05:43:03;99577.66;;;28.56;53.76
46846;BME280;33947;46.804;134.252;2022-08-18T05:46:09;99534.31;;;28.30;53.65
46846;BME280;33947;46.804;134.252;2022-08-18T05:49:14;99578.84;;;29.00;52.77
46846;BME280;33947;46.804;134.252;2022-08-18T05:55:50;99568.75;;;29.16;52.83
46846;BME280;33947;46.804;134.252;2022-08-18T05:59:26;99568.41;;;29.19;51.94
46846;BME280;33947;46.804;134.252;2022-08-18T06:02:36;99554.63;;;28.97;53.39
46846;BME280;33947;46.804;134.252;2022-08-18T06:06:04;99546.31;;;28.91;54.05
46846;BME280;33947;46.804;134.252;2022-08-18T06:09:20;99557.06;;;28.92;54.76
46846;BME280;33947;46.804;134.252;2022-08-18T06:12:37;99550.19;;;28.73;54.47
46846;BME280;33947;46.804;134.252;2022-08-18T06:15:53;99551.84;;;28.82;54.27
46846;BME280;33947;46.804;134.252;2022-08-18T06:19:06;99549.78;;;28.84;54.02
46846;BME280;33947;46.804;134.252;2022-08-18T06:22:29;99563.81;;;28.81;53.93
46846;BME280;33947;46.804;134.252;2022-08-18T06:26:18;99565.72;;;28.81;53.86
46846;BME280;33947;46.804;134.252;2022-08-18T06:36:20;99611.31;;;28.80;53.84
46846;BME280;33947;46.804;134.252;2022-08-18T06:42:37;99582.75;;;28.59;54.53
46846;BME280;33947;46.804;134.252;2022-08-18T06:45:45;99595.63;;;28.74;52.71
46846;BME280;33947;46.804;134.252;2022-08-18T06:48:59;99591.66;;;28.77;52.98
46846;BME280;33947;46.804;134.252;2022-08-18T06:52:22;99587.06;;;28.54;53.15
46846;BME280;33947;46.804;134.252;2022-08-18T06:55:43;99575.03;;;28.63;52.18
46846;BME280;33947;46.804;134.252;2022-08-18T06:58:48;99577.47;;;28.35;52.65
46846;BME280;33947;46.804;134.252;2022-08-18T07:02:09;99584.34;;;28.30;52.15
46846;BME280;33947;46.804;134.252;2022-08-18T07:08:38;99597.22;;;28.45;52.83
46846;BME280;33947;46.804;134.252;2022-08-18T07:15:04;99588.09;;;28.29;54.11
46846;BME280;33947;46.804;134.252;2022-08-18T07:18:12;99579.34;;;28.34;54.46
46846;BME280;33947;46.804;134.252;2022-08-18T07:21:34;99580.72;;;28.62;53.61
46846;BME280;33947;46.804;134.252;2022-08-18T07:24:48;99577.91;;;28.47;54.70
46846;BME280;33947;46.804;134.252;2022-08-18T07:27:54;99584.75;;;28.19;55.46
46846;BME280;33947;46.804;134.252;2022-08-18T07:34:26;99561.03;;;27.88;55.92
46846;BME280;33947;46.804;134.252;2022-08-18T07:43:59;99583.22;;;27.77;57.00
46846;BME280;33947;46.804;134.252;2022-08-18T07:50:23;99569.47;;;27.62;57.53
46846;BME280;33947;46.804;134.252;2022-08-18T07:57:49;99569.81;;;27.58;58.19
46846;BME280;33947;46.804;134.252;2022-08-18T08:01:17;99569.34;;;27.55;58.07
46846;BME280;33947;46.804;134.252;2022-08-18T08:04:46;99448.06;;;26.69;58.83
46846;BME280;33947;46.804;134.252;2022-08-18T08:08:00;99559.84;;;27.26;59.34
46846;BME280;33947;46.804;134.252;2022-08-18T08:14:55;99563.47;;;27.10;60.36
46846;BME280;33947;46.804;134.252;2022-08-18T08:21:22;99567.06;;;27.02;60.63
46846;BME280;33947;46.804;134.252;2022-08-18T08:24:45;99570.44;;;27.04;61.34
46846;BME280;33947;46.804;134.252;2022-08-18T08:28:10;99551.88;;;26.83;62.29
46846;BME280;33947;46.804;134.252;2022-08-18T08:34:55;99576.25;;;26.76;63.24
46846;BME280;33947;46.804;134.252;2022-08-18T08:38:26;99574.03;;;26.71;63.93
46846;BME280;33947;46.804;134.252;2022-08-18T08:42:00;99572.50;;;26.69;63.20
46846;BME280;33947;46.804;134.252;2022-08-18T08:45:32;99535.41;;;26.35;63.36
46846;BME280;33947;46.804;134.252;2022-08-18T08:48:43;99554.81;;;26.40;63.04
46846;BME280;33947;46.804;134.252;2022-08-18T08:51:55;99563.66;;;26.42;63.29
46846;BME280;33947;46.804;134.252;2022-08-18T08:55:34;99501.25;;;25.89;63.67
46846;BME280;33947;46.804;134.252;2022-08-18T08:58:44;99577.53;;;26.14;64.28
46846;BME280;33947;46.804;134.252;2022-08-18T09:05:35;99566.97;;;26.03;63.81
46846;BME280;33947;46.804;134.252;2022-08-18T09:22:52;99540.53;;;25.43;65.57
46846;BME280;33947;46.804;134.252;2022-08-18T09:25:59;99569.16;;;25.56;65.79
46846;BME280;33947;46.804;134.252;2022-08-18T09:29:25;99578.53;;;25.35;66.98
46846;BME280;33947;46.804;134.252;2022-08-18T09:32:39;99581.22;;;25.27;68.33
46846;BME280;33947;46.804;134.252;2022-08-18T09:39:34;99538.41;;;24.58;70.09
46846;BME280;33947;46.804;134.252;2022-08-18T09:49:50;99589.00;;;24.41;71.92
46846;BME280;33947;46.804;134.252;2022-08-18T10:00:17;99603.56;;;24.22;73.55
46846;BME280;33947;46.804;134.252;2022-08-18T10:03:30;99591.63;;;24.14;72.49
46846;BME280;33947;46.804;134.252;2022-08-18T10:06:37;99594.88;;;24.18;72.67
46846;BME280;33947;46.804;134.252;2022-08-18T10:10:03;99590.47;;;24.17;72.97
46846;BME280;33947;46.804;134.252;2022-08-18T10:31:05;99586.78;;;23.80;73.99
46846;BME280;33947;46.804;134.252;2022-08-18T10:34:45;99592.41;;;23.69;74.84
46846;BME280;33947;46.804;134.252;2022-08-18T10:37:55;99592.72;;;23.66;74.64
46846;BME280;33947;46.804;134.252;2022-08-18T10:41:11;99594.16;;;23.60;75.22
46846;BME280;33947;46.804;134.252;2022-08-18T10:44:20;99594.97;;;23.42;75.50
46846;BME280;33947;46.804;134.252;2022-08-18T10:47:31;99596.09;;;23.40;75.54
46846;BME280;33947;46.804;134.252;2022-08-18T10:51:06;99601.13;;;23.35;76.00
46846;BME280;33947;46.804;134.252;2022-08-18T10:54:43;99602.81;;;23.36;75.62
46846;BME280;33947;46.804;134.252;2022-08-18T11:01:40;99573.75;;;23.28;72.88
46846;BME280;33947;46.804;134.252;2022-08-18T11:04:50;99599.56;;;23.32;73.72
46846;BME280;33947;46.804;134.252;2022-08-18T11:08:05;99600.56;;;23.21;74.01
46846;BME280;33947;46.804;134.252;2022-08-18T11:11:33;99599.00;;;23.09;74.95
46846;BME280;33947;46.804;134.252;2022-08-18T11:18:46;99614.16;;;22.72;77.71
46846;BME280;33947;46.804;134.252;2022-08-18T11:24:45;99618.38;;;22.45;78.06
46846;BME280;33947;46.804;134.252;2022-08-18T11:27:52;99624.84;;;22.54;77.24
46846;BME280;33947;46.804;134.252;2022-08-18T11:30:58;99630.28;;;22.74;76.23
46846;BME280;33947;46.804;134.252;2022-08-18T11:34:13;99627.72;;;22.82;75.70
46846;BME280;33947;46.804;134.252;2022-08-18T11:41:10;99609.28;;;22.36;77.96
46846;BME280;33947;46.804;134.252;2022-08-18T11:44:23;99603.59;;;22.30;77.59
46846;BME280;33947;46.804;134.252;2022-08-18T11:47:29;99611.88;;;22.48;76.27
46846;BME280;33947;46.804;134.252;2022-08-18T11:50:47;99614.03;;;22.54;75.39
46846;BME280;33947;46.804;134.252;2022-08-18T12:01:00;99624.91;;;22.23;77.27
46846;BME280;33947;46.804;134.252;2022-08-18T12:07:35;99629.31;;;22.04;78.14
46846;BME280;33947;46.804;134.252;2022-08-18T12:10:40;99622.28;;;21.92;77.72
46846;BME280;33947;46.804;134.252;2022-08-18T12:13:45;99611.59;;;21.59;80.41
46846;BME280;33947;46.804;134.252;2022-08-18T12:16:53;99602.88;;;21.77;77.14
46846;BME280;33947;46.804;134.252;2022-08-18T12:19:58;99610.63;;;21.91;76.51
46846;BME280;33947;46.804;134.252;2022-08-18T12:23:05;99601.63;;;21.81;76.08
46846;BME280;33947;46.804;134.252;2022-08-18T12:26:09;99606.47;;;21.56;77.27
46846;BME280;33947;46.804;134.252;2022-08-18T12:29:34;99603.78;;;21.56;77.45
46846;BME280;33947;46.804;134.252;2022-08-18T12:32:47;99587.59;;;21.35;78.02
46846;BME280;33947;46.804;134.252;2022-08-18T12:36:04;99590.84;;;21.29;78.12
46846;BME280;33947;46.804;134.252;2022-08-18T12:39:09;99580.13;;;21.48;75.52
46846;BME280;33947;46.804;134.252;2022-08-18T12:42:16;99598.22;;;21.58;75.05
46846;BME280;33947;46.804;134.252;2022-08-18T12:45:22;99609.78;;;21.38;76.27
46846;BME280;33947;46.804;134.252;2022-08-18T12:48:30;99588.56;;;21.55;74.95
46846;BME280;33947;46.804;134.252;2022-08-18T12:51:36;99587.91;;;21.73;74.01
46846;BME280;33947;46.804;134.252;2022-08-18T12:54:40;99596.97;;;21.62;74.76
46846;BME280;33947;46.804;134.252;2022-08-18T12:57:58;99586.53;;;21.78;74.21
46846;BME280;33947;46.804;134.252;2022-08-18T13:01:03;99576.47;;;21.90;73.12
46846;BME280;33947;46.804;134.252;2022-08-18T13:04:07;99582.28;;;21.86;73.58
46846;BME280;33947;46.804;134.252;2022-08-18T13:07:15;99581.13;;;21.78;73.93
46846;BME280;33947;46.804;134.252;2022-08-18T13:10:21;99573.72;;;21.80;73.63
46846;BME280;33947;46.804;134.252;2022-08-18T13:13:45;99572.88;;;21.80;74.02
46846;BME280;33947;46.804;134.252;2022-08-18T13:16:55;99549.53;;;21.69;74.25
46846;BME280;33947;46.804;134.252;2022-08-18T13:20:12;99565.50;;;21.82;74.14
46846;BME280;33947;46.804;134.252;2022-08-18T13:23:17;99572.41;;;21.75;74.21
46846;BME280;33947;46.804;134.252;2022-08-18T13:26:30;99560.81;;;21.84;73.71
46846;BME280;33947;46.804;134.252;2022-08-18T13:29:35;99527.72;;;21.61;73.89
46846;BME280;33947;46.804;134.252;2022-08-18T13:32:44;99558.34;;;21.71;74.32
46846;BME280;33947;46.804;134.252;2022-08-18T13:36:03;99549.56;;;21.79;73.91
46846;BME280;33947;46.804;134.252;2022-08-18T13:39:07;99539.00;;;21.66;74.30
46846;BME280;33947;46.804;134.252;2022-08-18T13:42:12;99540.63;;;21.57;74.58
46846;BME280;33947;46.804;134.252;2022-08-18T13:45:32;99540.47;;;21.49;75.16
46846;BME280;33947;46.804;134.252;2022-08-18T13:48:39;99538.13;;;21.65;74.33
46846;BME280;33947;46.804;134.252;2022-08-18T13:51:44;99552.50;;;21.76;74.14
46846;BME280;33947;46.804;134.252;2022-08-18T13:54:52;99546.88;;;21.58;75.11
46846;BME280;33947;46.804;134.252;2022-08-18T13:57:57;99538.03;;;21.55;75.33
46846;BME280;33947;46.804;134.252;2022-08-18T14:01:06;99528.22;;;21.54;75.26
46846;BME280;33947;46.804;134.252;2022-08-18T14:04:30;99528.03;;;21.67;74.56
46846;BME280;33947;46.804;134.252;2022-08-18T14:07:37;99501.28;;;21.64;74.25
46846;BME280;33947;46.804;134.252;2022-08-18T14:10:43;99503.13;;;21.64;74.66
46846;BME280;33947;46.804;134.252;2022-08-18T14:13:52;99508.97;;;21.69;74.69
46846;BME280;33947;46.804;134.252;2022-08-18T14:16:58;99510.44;;;21.83;74.14
46846;BME280;33947;46.804;134.252;2022-08-18T14:20:04;99486.31;;;21.60;74.77
46846;BME280;33947;46.804;134.252;2022-08-18T14:23:29;99519.94;;;21.77;74.94
46846;BME280;33947;46.804;134.252;2022-08-18T14:26:55;99507.34;;;21.57;75.79
46846;BME280;33947;46.804;134.252;2022-08-18T14:30:11;99518.03;;;21.58;76.26
46846;BME280;33947;46.804;134.252;2022-08-18T14:33:19;99511.75;;;21.48;76.99
46846;BME280;33947;46.804;134.252;2022-08-18T14:36:45;99499.59;;;21.32;77.64
46846;BME280;33947;46.804;134.252;2022-08-18T14:39:50;99507.25;;;21.27;78.12
46846;BME280;33947;46.804;134.252;2022-08-18T14:42:56;99501.22;;;21.14;79.27
46846;BME280;33947;46.804;134.252;2022-08-18T14:46:02;99505.75;;;21.13;79.37
46846;BME280;33947;46.804;134.252;2022-08-18T14:49:09;99498.66;;;21.12;79.37
46846;BME280;33947;46.804;134.252;2022-08-18T14:52:15;99508.84;;;21.30;78.91
46846;BME280;33947;46.804;134.252;2022-08-18T14:55:19;99509.09;;;21.27;79.29
46846;BME280;33947;46.804;134.252;2022-08-18T14:58:26;99513.78;;;21.24;79.86
46846;BME280;33947;46.804;134.252;2022-08-18T15:01:32;99492.47;;;21.21;79.83
46846;BME280;33947;46.804;134.252;2022-08-18T15:04:44;99498.75;;;21.32;79.77
46846;BME280;33947;46.804;134.252;2022-08-18T15:08:01;99478.59;;;21.46;79.23
46846;BME280;33947;46.804;134.252;2022-08-18T15:11:06;99476.88;;;21.45;79.46
46846;BME280;33947;46.804;134.252;2022-08-18T15:14:14;99494.50;;;21.39;80.07
46846;BME280;33947;46.804;134.252;2022-08-18T15:17:21;99488.38;;;21.37;80.75
46846;BME280;33947;46.804;134.252;2022-08-18T15:20:27;99493.25;;;21.53;80.13
46846;BME280;33947;46.804;134.252;2022-08-18T15:23:32;99474.06;;;21.56;80.27
46846;BME280;33947;46.804;134.252;2022-08-18T15:27:00;99473.78;;;21.59;80.49
46846;BME280;33947;46.804;134.252;2022-08-18T15:30:16;99401.75;;;21.19;80.92
46846;BME280;33947;46.804;134.252;2022-08-18T15:33:22;99471.16;;;21.69;80.52
46846;BME280;33947;46.804;134.252;2022-08-18T15:36:34;99464.16;;;21.66;80.91
46846;BME280;33947;46.804;134.252;2022-08-18T15:39:38;99451.06;;;21.62;80.83
46846;BME280;33947;46.804;134.252;2022-08-18T15:42:49;99451.56;;;21.55;81.74
46846;BME280;33947;46.804;134.252;2022-08-18T15:45:54;99475.56;;;21.70;81.66
46846;BME280;33947;46.804;134.252;2022-08-18T15:49:01;99458.06;;;21.74;81.16
46846;BME280;33947;46.804;134.252;2022-08-18T15:52:12;99449.66;;;21.77;81.32
46846;BME280;33947;46.804;134.252;2022-08-18T15:55:21;99441.53;;;21.67;81.79
46846;BME280;33947;46.804;134.252;2022-08-18T15:58:26;99448.66;;;21.78;81.36
46846;BME280;33947;46.804;134.252;2022-08-18T16:01:33;99451.38;;;21.88;81.46
46846;BME280;33947;46.804;134.252;2022-08-18T16:04:45;99462.75;;;21.92;81.55
46846;BME280;33947;46.804;134.252;2022-08-18T16:07:52;99451.81;;;21.83;82.09
46846;BME280;33947;46.804;134.252;2022-08-18T16:11:06;99457.06;;;21.95;81.90
46846;BME280;33947;46.804;134.252;2022-08-18T16:14:16;99432.72;;;21.75;82.20
46846;BME280;33947;46.804;134.252;2022-08-18T16:17:20;99453.22;;;21.88;82.25
46846;BME280;33947;46.804;134.252;2022-08-18T16:20:34;99455.81;;;21.99;82.20
46846;BME280;33947;46.804;134.252;2022-08-18T16:23:42;99449.81;;;21.95;82.18
46846;BME280;33947;46.804;134.252;2022-08-18T16:26:47;99452.94;;;22.10;81.80
46846;BME280;33947;46.804;134.252;2022-08-18T16:29:51;99449.94;;;21.94;82.45
46846;BME280;33947;46.804;134.252;2022-08-18T16:33:02;99445.13;;;22.17;81.80
46846;BME280;33947;46.804;134.252;2022-08-18T16:36:10;99456.34;;;22.03;82.60
46846;BME280;33947;46.804;134.252;2022-08-18T16:39:17;99455.22;;;22.05;82.33
46846;BME280;33947;46.804;134.252;2022-08-18T16:42:22;99464.19;;;22.06;82.88
46846;BME280;33947;46.804;134.252;2022-08-18T16:45:27;99443.53;;;21.95;83.15
46846;BME280;33947;46.804;134.252;2022-08-18T16:48:31;99456.09;;;21.86;83.78
46846;BME280;33947;46.804;134.252;2022-08-18T16:51:37;99462.47;;;21.95;83.36
46846;BME280;33947;46.804;134.252;2022-08-18T16:54:43;99446.81;;;21.98;82.69
46846;BME280;33947;46.804;134.252;2022-08-18T16:57:48;99440.41;;;22.00;82.68
46846;BME280;33947;46.804;134.252;2022-08-18T17:01:17;99438.59;;;22.00;82.90
46846;BME280;33947;46.804;134.252;2022-08-18T17:04:51;99452.09;;;22.00;83.32
46846;BME280;33947;46.804;134.252;2022-08-18T17:07:56;99440.00;;;21.94;83.85
46846;BME280;33947;46.804;134.252;2022-08-18T17:11:09;99425.19;;;21.89;84.11
46846;BME280;33947;46.804;134.252;2022-08-18T17:14:14;99437.28;;;21.85;84.08
46846;BME280;33947;46.804;134.252;2022-08-18T17:17:21;99439.44;;;21.81;84.70
46846;BME280;33947;46.804;134.252;2022-08-18T17:20:26;99442.28;;;21.89;84.39
46846;BME280;33947;46.804;134.252;2022-08-18T17:23:33;99427.63;;;21.82;84.76
46846;BME280;33947;46.804;134.252;2022-08-18T17:26:58;99428.88;;;21.88;84.86
46846;BME280;33947;46.804;134.252;2022-08-18T17:30:27;99429.47;;;21.91;84.19
46846;BME280;33947;46.804;134.252;2022-08-18T17:33:37;99427.75;;;21.90;85.32
46846;BME280;33947;46.804;134.252;2022-08-18T17:36:53;99432.59;;;21.87;85.73
46846;BME280;33947;46.804;134.252;2022-08-18T17:40:15;99399.25;;;21.57;86.38
46846;BME280;33947;46.804;134.252;2022-08-18T17:43:23;99435.44;;;21.85;85.63
46846;BME280;33947;46.804;134.252;2022-08-18T17:46:30;99424.06;;;21.91;85.33
46846;BME280;33947;46.804;134.252;2022-08-18T17:49:43;99421.78;;;21.96;84.89
46846;BME280;33947;46.804;134.252;2022-08-18T17:53:27;99396.31;;;21.79;85.56
46846;BME280;33947;46.804;134.252;2022-08-18T17:56:59;99398.44;;;21.86;86.14
46846;BME280;33947;46.804;134.252;2022-08-18T18:00:11;99402.31;;;21.83;86.27
46846;BME280;33947;46.804;134.252;2022-08-18T18:03:17;99390.78;;;21.81;86.11
46846;BME280;33947;46.804;134.252;2022-08-18T18:06:38;99394.16;;;21.93;85.37
46846;BME280;33947;46.804;134.252;2022-08-18T18:09:53;99389.50;;;21.85;86.34
46846;BME280;33947;46.804;134.252;2022-08-18T18:13:10;99395.63;;;21.87;86.16
46846;BME280;33947;46.804;134.252;2022-08-18T18:19:27;99382.50;;;21.82;86.17
46846;BME280;33947;46.804;134.252;2022-08-18T18:22:35;99382.22;;;21.86;86.33
46846;BME280;33947;46.804;134.252;2022-08-18T18:25:41;99385.94;;;21.85;86.52
46846;BME280;33947;46.804;134.252;2022-08-18T18:28:46;99371.41;;;21.76;87.16
46846;BME280;33947;46.804;134.252;2022-08-18T18:32:05;99390.47;;;21.74;87.99
46846;BME280;33947;46.804;134.252;2022-08-18T18:35:26;99393.03;;;21.76;87.79
46846;BME280;33947;46.804;134.252;2022-08-18T18:38:37;99396.53;;;21.57;89.36
46846;BME280;33947;46.804;134.252;2022-08-18T18:41:44;99389.34;;;21.67;87.52
46846;BME280;33947;46.804;134.252;2022-08-18T18:44:54;99396.47;;;21.68;87.85